Tiempo atmosférico en la estación meteorológica de Cala, Huelva (618 m.)



Fecha
DESCASC
Temp. máxima en grados centígrados (hora)
DESCASC
Temp. mínima en grados centígrados (hora)
DESCASC
Temp. media en grados centígrados
DESCASC
Racha de viento máxima en m/sg (hora)
DESCASC
Velocidad máxima media en intervalos de 10 minutos(hora)
DESCASC
Precipitaciones diarias en mm
DESCASC
Precipitaciones de 00:00 a 06:00 en mm
DESCASC
Precipitaciones de 06:00 a 12:00 en mm
DESCASC
Precipitaciones de 12:00 a 18:00 en mm
DESCASC
Precipitaciones de 18:00 a 24:00 en mm
DESCASC
29-10-2020 21.3 (15:20) 9.8 (07:20) 15.5 6.67 (14:40) 3.06 (15:20) 0 0 0 0 0
28-10-2020 18.8 (14:30) 7.3 (06:40) 13 4.17 (15:50) 2.22 (17:30) 0 0 0 0 0
27-10-2020 15.2 (16:20) 4.7 (00:00) 9.9 5 (17:00) 2.78 (17:20) 0 0 0 0 0
26-10-2020 13.4 (16:00) 6.8 (00:00) 10.1 8.61 (15:40) 4.44 (11:50) 0 0 0 0 0
25-10-2020 16.3 (15:50) 8.9 (00:00) 12.6 10.28 (13:20) 4.44 (21:10) 0.4 0 0 0 0.4
24-10-2020 17.5 (16:50) 7.8 (00:00) 12.7 5.83 (15:30) 2.22 (13:20) 0 0 0 0 0
23-10-2020 16.6 (15:30) 7.4 (00:00) 12 7.22 (15:50) 3.33 (17:20) 0 0 0 0 0
22-10-2020 17.7 (15:00) 11.8 (00:00) 14.8 7.22 (20:10) 2.78 (17:50) 0 0 0 0 0
21-10-2020 -- (--) -- (--) -- -- (--) -- (--) -- -- -- -- --
20-10-2020 18.4 (13:50) 13.3 (00:00) 15.8 16.94 (21:40) 6.11 (21:40) -- -- -- -- --
19-10-2020 23.5 (15:40) 9.2 (00:00) 16.3 10 (17:50) 3.61 (18:20) 0 0 0 0 0
18-10-2020 21.6 (17:00) 7.5 (00:00) 14.6 6.39 (13:40) 2.5 (13:40) 0 0 0 0 0
17-10-2020 19.5 (17:50) 7.7 (00:00) 13.6 4.72 (17:10) 2.22 (04:40) 0 0 0 0 0
16-10-2020 19.5 (17:50) 6.4 (00:00) 13 6.11 (18:30) 2.22 (18:30) 0 0 0 0 0
15-10-2020 18.5 (17:00) 6.3 (00:00) 12.4 5.83 (17:20) 3.33 (17:00) 0 0 0 0 0
14-10-2020 17.9 (17:00) 7.2 (00:00) 12.5 8.89 (13:50) 5.28 (14:00) 0 0 0 0 0
13-10-2020 23.9 (17:40) 8 (00:00) 15.9 6.39 (18:00) 3.61 (18:00) 0 0 0 0 0
12-10-2020 21 (17:20) 11.3 (00:00) 16.2 8.89 (10:20) 4.17 (10:20) 0 0 0 0 0
11-10-2020 24.2 (15:50) 12.8 (00:00) 18.5 7.78 (15:40) 3.33 (15:40) 0 0 0 0 0
10-10-2020 28.4 (17:40) 14.4 (00:00) 21.4 5.83 (17:20) 2.78 (19:10) 0 0 0 0 0
09-10-2020 27.4 (17:00) 14.2 (00:00) 20.8 4.72 (19:00) 2.5 (19:00) 0 0 0 0 0
08-10-2020 28 (17:40) 13.6 (00:00) 20.8 5.28 (14:00) 2.78 (22:30) 0 0 0 0 0
07-10-2020 27.2 (17:50) 14.5 (00:00) 20.9 5 (12:00) 2.5 (11:50) 0 0 0 0 0
06-10-2020 24.4 (17:50) 10.7 (00:00) 17.5 6.39 (12:00) 2.78 (13:20) 0 0 0 0 0
05-10-2020 19.7 (17:40) 9.3 (00:00) 14.5 7.78 (12:30) 4.72 (17:50) 0 0 0 0 0
04-10-2020 19.6 (14:50) 7.4 (00:00) 13.5 8.89 (15:40) 5 (15:20) 0 0 0 0 0
03-10-2020 16.9 (17:20) 7.5 (00:00) 12.2 8.61 (13:20) 5.28 (13:20) 0 0 0 0 0
02-10-2020 17.2 (14:20) 9.3 (00:00) 13.3 15 (14:10) 7.5 (16:10) -- 0 -- -- 0
01-10-2020 22.7 (16:00) 11.3 (00:00) 17 9.44 (17:40) 5.28 (17:30) 0 0 0 0 0
30-09-2020 26.8 (17:20) 14.2 (00:00) 20.5 7.5 (18:10) 3.61 (18:10) 0 0 0 0 0

Gráficas

Temp. máximas Temp. mínimas Temp. medias Precipitaciones Rachas de viento máximas Velocidades máximas media en intervalos de 10 minutos

Datos horarios

Fecha y hora oficial Temperatura (ºC) Velocidad del viento (km/h) Dirección del viento Racha (km/h) Dirección de racha Precipitación (mm) Presión (hPa) Tendencia (hPa) Humedad (%)
2020-10-29 23:00:00 12.4 0 Calma 2 Este 0 -- -- 79
2020-10-29 22:00:00 12.5 0 Calma 3 Noroeste 0 -- -- 79
2020-10-29 21:00:00 13.2 0 Calma 3 Oeste 0 -- -- 76
2020-10-29 20:00:00 14.4 0 Calma 3 Noroeste 0 -- -- 72
2020-10-29 19:00:00 17 0 Calma 5 Sudeste 0 -- -- 65
2020-10-29 18:00:00 19.7 2 Sudeste 12 Sudeste 0 -- -- 51
2020-10-29 17:00:00 21 5 Sudeste 16 Sudeste 0 -- -- 47
2020-10-29 16:00:00 21.2 5 Sudeste 22 Este 0 -- -- 46
2020-10-29 15:00:00 21.2 10 Sudeste 24 Este 0 -- -- 49
2020-10-29 14:00:00 20.9 5 Sudeste 19 Este 0 -- -- 53
2020-10-29 13:00:00 20.1 5 Sudeste 21 Este 0 -- -- 55
2020-10-29 12:00:00 19.2 5 Este 15 Este 0 -- -- 67
2020-10-29 11:00:00 18 5 Este 12 Este 0 -- -- 73
2020-10-29 10:00:00 15 0 Calma 5 Nordeste 0 -- -- 92
2020-10-29 09:00:00 11.5 0 Calma 0 Calma 0 -- -- 99
2020-10-29 08:00:00 10 0 Calma 2 Sur 0 -- -- 98
2020-10-29 07:00:00 10 0 Calma 0 Calma 0 -- -- 97
2020-10-29 06:00:00 10.3 0 Calma 2 Sudoeste 0 -- -- 97
2020-10-29 05:00:00 10.5 0 Calma 2 Noroeste 0 -- -- 97
2020-10-29 04:00:00 10.6 0 Calma 0 Calma 0 -- -- 96
2020-10-29 03:00:00 10.9 0 Calma 2 Sudoeste 0 -- -- 96
2020-10-29 02:00:00 11.3 0 Calma 3 Sudoeste 0 -- -- 96
2020-10-29 01:00:00 11.6 0 Calma 4 Noroeste 0 -- -- 94
2020-10-29 00:00:00 12.2 0 Calma 5 Noroeste 0 -- -- 91
2020-10-28 23:00:00 13.1 0 Calma 9 Noroeste 0 -- -- 91
2020-10-28 22:00:00 13.7 3 Norte 9 Nordeste 0 -- -- 91
2020-10-28 21:00:00 13.6 3 Norte 6 Norte 0 -- -- 90
2020-10-28 20:00:00 14.4 3 Norte 5 Norte 0 -- -- 85
2020-10-28 19:00:00 15.8 3 Noroeste 6 Norte 0 -- -- 81
2020-10-28 18:00:00 17.7 3 Norte 14 Norte 0 -- -- 74
2020-10-28 17:00:00 18.5 5 Norte 14 Noroeste 0 -- -- 70
2020-10-28 16:00:00 18.7 6 Nordeste 15 Norte 0 -- -- 69
2020-10-28 15:00:00 18.8 6 Norte 13 Norte 0 -- -- 68
2020-10-28 14:00:00 17.9 3 Este 13 Este 0 -- -- 69
2020-10-28 13:00:00 16.3 4 Este 10 Este 0 -- -- 73
2020-10-28 12:00:00 15 2 Sudoeste 5 Sudoeste 0 -- -- 77
2020-10-28 11:00:00 13.9 0 Calma 4 Sur 0 -- -- 80
2020-10-28 10:00:00 11.9 0 Calma 4 Sudeste 0 -- -- 90
2020-10-28 09:00:00 9.4 2 Este 5 Este 0 -- -- 98
2020-10-28 08:00:00 7.7 0 Calma 4 Noroeste 0 -- -- 97
2020-10-28 07:00:00 7.4 0 Calma 3 Noroeste 0 -- -- 95
2020-10-28 06:00:00 7.6 0 Calma 3 Oeste 0 -- -- 95
2020-10-28 05:00:00 7.7 0 Calma 6 Oeste 0 -- -- 95
2020-10-28 04:00:00 7.7 2 Noroeste 7 Oeste 0 -- -- 95
2020-10-28 03:00:00 7.6 3 Noroeste 4 Oeste 0 -- -- 95
2020-10-28 02:00:00 7.5 0 Calma 4 Noroeste 0 -- -- 93
2020-10-28 01:00:00 7.9 0 Calma 3 Noroeste 0 -- -- 92
2020-10-28 00:00:00 8.6 3 Noroeste 6 Noroeste 0 -- -- 90
2020-10-27 23:00:00 9 2 Noroeste 7 Noroeste 0 -- -- 87
2020-10-27 22:00:00 9.4 3 Oeste 6 Noroeste 0 -- -- 86
2020-10-27 21:00:00 10.4 0 Calma 10 Noroeste 0 -- -- 80
2020-10-27 20:00:00 11.3 5 Noroeste 9 Noroeste 0 -- -- 76
2020-10-27 19:00:00 12.5 3 Noroeste 12 Noroeste 0 -- -- 70
2020-10-27 18:00:00 14.3 5 Noroeste 18 Norte 0 -- -- 62
2020-10-27 17:00:00 15.1 9 Norte 18 Norte 0 -- -- 56
2020-10-27 16:00:00 15.1 5 Noroeste 17 Noroeste 0 -- -- 57
2020-10-27 15:00:00 14.2 3 Norte 13 Oeste 0 -- -- 57
2020-10-27 14:00:00 13.7 6 Noroeste 15 Noroeste 0 -- -- 58
2020-10-27 13:00:00 13.3 6 Norte 12 Noroeste 0 -- -- 56
2020-10-27 12:00:00 12.4 3 Norte 14 Norte 0 -- -- 62
2020-10-27 11:00:00 11.6 3 Nordeste 7 Nordeste 0 -- -- 65
2020-10-27 10:00:00 9.9 0 Calma 12 Noroeste 0 -- -- 74
2020-10-27 09:00:00 6.8 4 Noroeste 8 Noroeste 0 -- -- 85
2020-10-27 08:00:00 5 3 Noroeste 6 Oeste 0 -- -- 95
2020-10-27 07:00:00 4.8 0 Calma 4 Noroeste 0 -- -- 92
2020-10-27 06:00:00 5.5 0 Calma 6 Norte 0 -- -- 91
2020-10-27 05:00:00 6.1 4 Noroeste 7 Noroeste 0 -- -- 90
2020-10-27 04:00:00 6.8 4 Oeste 10 Oeste 0 -- -- 88
2020-10-27 03:00:00 6.7 6 Noroeste 9 Oeste 0 -- -- 89
2020-10-27 02:00:00 6.8 3 Noroeste 9 Noroeste 0 -- -- 87
2020-10-27 01:00:00 7.1 6 Noroeste 10 Noroeste 0 -- -- 87
2020-10-27 00:00:00 6.8 2 Oeste 7 Noroeste 0 -- -- 88
2020-10-26 23:00:00 7.1 3 Noroeste 7 Noroeste 0 -- -- 87
2020-10-26 22:00:00 7.5 0 Calma 8 Noroeste 0 -- -- 84
2020-10-26 21:00:00 8.1 4 Noroeste 9 Noroeste 0 -- -- 81
2020-10-26 20:00:00 9.4 5 Noroeste 14 Noroeste 0 -- -- 71
2020-10-26 19:00:00 10.4 6 Noroeste 13 Oeste 0 -- -- 67
2020-10-26 18:00:00 12.3 9 Noroeste 23 Noroeste 0 -- -- 60
2020-10-26 17:00:00 13.2 13 Noroeste 26 Noroeste 0 -- -- 56
2020-10-26 16:00:00 13.4 12 Noroeste 31 Oeste 0 -- -- 56
2020-10-26 15:00:00 13.1 14 Noroeste 24 Norte 0 -- -- 59
2020-10-26 14:00:00 12.6 14 Norte 26 Norte 0 -- -- 60
2020-10-26 13:00:00 11.7 12 Norte 27 Noroeste 0 -- -- 63
2020-10-26 12:00:00 10.9 14 Noroeste 29 Noroeste 0 -- -- 68
2020-10-26 11:00:00 10.5 12 Noroeste 24 Noroeste 0 -- -- 74
2020-10-26 10:00:00 9.7 13 Noroeste 24 Noroeste 0 -- -- 86
2020-10-26 09:00:00 8 11 Oeste 21 Noroeste 0 -- -- 94
2020-10-26 08:00:00 7.2 8 Oeste 17 Oeste 0 -- -- 95
2020-10-26 07:00:00 7.4 5 Oeste 12 Noroeste 0 -- -- 94
2020-10-26 06:00:00 8.2 4 Noroeste 21 Oeste 0 -- -- 93
2020-10-26 05:00:00 8.6 6 Oeste 17 Noroeste 0 -- -- 95
2020-10-26 04:00:00 8.5 7 Noroeste 23 Noroeste 0 -- -- 94
2020-10-26 03:00:00 8.9 10 Noroeste 26 Oeste 0 -- -- 93
2020-10-26 02:00:00 9.6 14 Noroeste 28 Oeste 0 -- -- 92
2020-10-26 01:00:00 10.4 10 Noroeste 28 Noroeste 0 -- -- 95
2020-10-26 00:00:00 11.3 14 Noroeste 29 Norte 0 -- -- 94
2020-10-25 23:00:00 11.8 6 Oeste 25 Oeste 0 -- -- 96
2020-10-25 22:00:00 12.3 10 Oeste 31 Oeste 0 -- -- 95
2020-10-25 21:00:00 13.3 12 Noroeste 26 Noroeste 0.2 -- -- 95
2020-10-25 20:00:00 14 8 Oeste 30 Oeste 0.2 -- -- 96
2020-10-25 19:00:00 14.1 11 Sudoeste 30 Sudoeste 0 -- -- 95
2020-10-25 18:00:00 14.1 6 Sur 30 Sudoeste 0 -- -- 93
2020-10-25 17:00:00 15.1 8 Sudoeste 33 Sudoeste 0 -- -- 85
2020-10-25 16:00:00 16.1 9 Sudoeste 36 Sudoeste 0 -- -- 74
2020-10-25 15:00:00 16 4 Sudoeste 30 Oeste 0 -- -- 74
2020-10-25 14:00:00 15.8 9 Sudoeste 37 Oeste 0 -- -- 75
2020-10-25 13:00:00 15.7 9 Sudoeste 28 Sudoeste 0 -- -- 75
2020-10-25 12:00:00 14.9 5 Sudoeste 24 Sudoeste 0 -- -- 77
2020-10-25 11:00:00 13.8 5 Sudoeste 22 Sudoeste 0 -- -- 81
2020-10-25 10:00:00 12.9 4 Sudoeste 13 Noroeste 0 -- -- 83
2020-10-25 09:00:00 9.9 0 Calma 5 Oeste 0 -- -- 92
2020-10-25 08:00:00 8.9 2 Oeste 10 Sudoeste 0 -- -- 91
2020-10-25 07:00:00 9.4 5 Oeste 11 Oeste 0 -- -- 89
2020-10-25 06:00:00 9.7 6 Oeste 13 Oeste 0 -- -- 89
2020-10-25 05:00:00 9.9 8 Oeste 16 Oeste 0 -- -- 90
2020-10-25 04:00:00 9.8 6 Oeste 16 Oeste 0 -- -- 90
2020-10-25 03:00:00 9.9 8 Oeste 12 Noroeste 0 -- -- 90
2020-10-25 02:00:00 10.2 3 Oeste 9 Oeste 0 -- -- 88
2020-10-25 01:00:00 10.9 5 Oeste 10 Oeste 0 -- -- 87
2020-10-25 00:00:00 11.3 6 Oeste 13 Noroeste 0 -- -- 85
2020-10-24 23:00:00 11.9 6 Oeste 12 Oeste 0 -- -- 81
2020-10-24 22:00:00 12.4 6 Oeste 10 Oeste 0 -- -- 79
2020-10-24 21:00:00 13.1 6 Oeste 13 Oeste 0 -- -- 76
2020-10-24 20:00:00 13.9 5 Sudoeste 13 Sudoeste 0 -- -- 73
2020-10-24 19:00:00 15.5 5 Sudoeste 13 Sudoeste 0 -- -- 68
2020-10-24 18:00:00 16.4 4 Oeste 19 Sudoeste 0 -- -- 66
2020-10-24 17:00:00 17.5 7 Oeste 19 Noroeste 0 -- -- 59
2020-10-24 16:00:00 17.1 5 Oeste 21 Sudoeste 0 -- -- 64
2020-10-24 15:00:00 16.2 5 Sudoeste 15 Sudoeste 0 -- -- 68
2020-10-24 14:00:00 15.9 4 Sudoeste 19 Sudoeste 0 -- -- 74
2020-10-24 13:00:00 16.2 2 Sudeste 15 Sur 0 -- -- 71
2020-10-24 12:00:00 15.2 4 Sudoeste 13 Oeste 0 -- -- 77
2020-10-24 11:00:00 13.5 0 Calma 6 Este 0 -- -- 96
2020-10-24 10:00:00 9.7 0 Calma 0 Calma 0 -- -- 99
2020-10-24 09:00:00 7.8 0 Calma 2 Sudoeste 0 -- -- 97
2020-10-24 08:00:00 8 0 Calma 2 Noroeste 0 -- -- 97
2020-10-24 07:00:00 8.2 0 Calma 0 Calma 0 -- -- 97
2020-10-24 06:00:00 8.3 0 Calma -- -- 0 -- -- 97
2020-10-24 05:00:00 8.5 0 Calma 0 Calma 0 -- -- 97
2020-10-24 04:00:00 8.7 0 Calma 2 Oeste 0 -- -- 96
2020-10-24 03:00:00 8.9 0 Calma 0 Calma 0 -- -- 95
2020-10-24 02:00:00 9.2 0 Calma 0 Calma 0 -- -- 95
2020-10-24 01:00:00 9.7 0 Calma 2 Noroeste 0 -- -- 94
2020-10-24 00:00:00 10.2 0 Calma 4 Noroeste 0 -- -- 94
2020-10-23 23:00:00 10.7 3 Oeste 5 Oeste 0 -- -- 93
2020-10-23 22:00:00 10.9 3 Oeste 5 Oeste 0 -- -- 91
2020-10-23 21:00:00 12.1 3 Oeste 8 Oeste 0 -- -- 86
2020-10-23 20:00:00 13.4 6 Oeste 12 Oeste 0 -- -- 79
2020-10-23 19:00:00 14.8 6 Oeste 15 Noroeste 0 -- -- 72
2020-10-23 18:00:00 15.8 5 Oeste 21 Oeste 0 -- -- 75
2020-10-23 17:00:00 14.7 7 Oeste 13 Oeste 0 -- -- 82
2020-10-23 16:00:00 15.2 10 Noroeste 26 Oeste 0 -- -- 82
2020-10-23 15:00:00 16.4 3 Sur 19 Sudoeste 0 -- -- 67
2020-10-23 14:00:00 15.9 3 Sur 19 Sudoeste 0 -- -- 71
2020-10-23 13:00:00 14.8 5 Sudoeste 15 Sudoeste 0 -- -- 77
2020-10-23 12:00:00 14.2 2 Sur 12 Sudoeste 0 -- -- 81
2020-10-23 11:00:00 11.9 2 Este 5 Sudeste 0 -- -- 98
2020-10-23 10:00:00 9.4 0 Calma 3 Sudeste 0 -- -- 99
2020-10-23 09:00:00 7.6 0 Calma 5 Sudoeste 0 -- -- 98
2020-10-23 08:00:00 7.7 0 Calma 2 Noroeste 0 -- -- 96
2020-10-23 07:00:00 8.1 0 Calma 4 Oeste 0 -- -- 96
2020-10-23 06:00:00 8.4 2 Oeste 4 Oeste 0 -- -- 95
2020-10-23 05:00:00 9.1 0 Calma 7 Oeste 0 -- -- 94
2020-10-23 04:00:00 9.7 3 Oeste 7 Oeste 0 -- -- 95
2020-10-23 03:00:00 10.2 4 Oeste 6 Oeste 0 -- -- 94
2020-10-23 02:00:00 10.7 3 Oeste 6 Oeste 0 -- -- 93
2020-10-23 01:00:00 11.1 4 Oeste 10 Oeste 0 -- -- 92
2020-10-23 00:00:00 11.8 6 Oeste 12 Sudoeste 0 -- -- 91
2020-10-22 23:00:00 12.6 2 Sudoeste 13 Sudoeste 0 -- -- 88
2020-10-22 22:00:00 12.8 5 Sudoeste 20 Sudoeste 0 -- -- 86
2020-10-22 21:00:00 13.4 8 Sudoeste 26 Sudoeste 0 -- -- 83
2020-10-22 20:00:00 14.2 7 Sudoeste 24 Sudoeste 0 -- -- 76
2020-10-22 19:00:00 15.1 8 Sudoeste 23 Oeste 0 -- -- 78
2020-10-22 18:00:00 15.3 8 Noroeste 26 Oeste 0 -- -- 77
2020-10-22 17:00:00 17 4 Sudoeste 18 Sudoeste 0 -- -- 76
2020-10-22 16:00:00 16.7 3 Oeste 16 Sudoeste 0 -- -- 86
2020-10-22 15:00:00 17.7 3 Sudeste 11 Sudeste 0 -- -- 76
2020-10-22 14:00:00 17.2 2 Sur 12 Este 0 -- -- 79
2020-10-22 13:00:00 17.2 3 Sudeste 8 Sur 0 -- -- 78
2020-10-22 12:00:00 16.7 2 Sudeste 9 Sudeste 0 -- -- 86
2020-10-22 11:00:00 15.1 0 Calma 5 Sur 0 -- -- 95
2020-10-22 10:00:00 13.4 0 Calma 4 Sur 0 -- -- 96
2020-10-22 09:00:00 13.2 0 Calma 7 Sur 0 -- -- 96
2020-10-22 08:00:00 13.3 3 Sur 12 Sudoeste 0 -- -- 97
2020-10-22 07:00:00 13.3 0 Calma 13 Sudoeste 0 -- -- 97
2020-10-22 06:00:00 13.3 2 Sur 13 Sudoeste 0 -- -- 97
2020-10-22 05:00:00 13.3 2 Sur 9 Sudoeste 0 -- -- 96
2020-10-22 04:00:00 13.4 2 Sur 10 Oeste 0 -- -- 97
2020-10-22 03:00:00 13.2 0 Calma 14 Sudoeste 0 -- -- 97
2020-10-22 02:00:00 13.2 0 Calma 8 Sur 0 -- -- 97
2020-10-22 01:00:00 13.2 0 Calma 10 Sur 0 -- -- 97
2020-10-22 00:00:00 12.8 0 Calma 12 Sudoeste 0 -- -- 96
2020-10-21 23:00:00 12.8 4 Sudoeste 24 Sudoeste 1.6 -- -- 94
2020-10-21 22:00:00 13.6 6 Sudoeste 24 Sudoeste 2.6 -- -- 95
2020-10-21 21:00:00 14 4 Sudoeste 22 Sudoeste 0.2 -- -- 93
2020-10-21 20:00:00 14.5 3 Sur 18 Sudoeste 0.4 -- -- 91
2020-10-21 19:00:00 15.9 4 Sur 23 Sudoeste 0 -- -- 82
2020-10-21 18:00:00 16.6 3 Sur 22 Sudoeste 0 -- -- 77
2020-10-21 17:00:00 17.5 5 Sur 24 Sudoeste 0 -- -- 67
2020-10-21 16:00:00 17.6 4 Sur -- -- -- -- -- 69
2020-10-21 15:00:00 17.6 3 Sur 22 Sudoeste 0 -- -- 69
2020-10-21 14:00:00 17.2 5 Sur 26 Sudoeste 0 -- -- 75
2020-10-21 13:00:00 16.6 8 Sur 24 Sur 0 -- -- 78
2020-10-21 12:00:00 16.2 5 Sur 21 Sudoeste 0 -- -- 84
2020-10-21 11:00:00 14.4 3 Sur 18 Sudoeste 0.2 -- -- 92
2020-10-21 10:00:00 13.5 3 Sur 15 Sudoeste 0 -- -- 95
2020-10-21 09:00:00 13.1 6 Sudoeste 24 Sudoeste 0 -- -- 96
2020-10-21 08:00:00 13.2 8 Sudoeste 30 Oeste 0 -- -- 96
2020-10-21 07:00:00 13.3 6 Sudoeste 23 Sudoeste 0.6 -- -- 96
2020-10-21 06:00:00 13.5 5 Sur 24 Sudoeste 0.2 -- -- 95
2020-10-21 05:00:00 13.7 4 Sur 24 Sudoeste 0.4 -- -- 96
2020-10-21 04:00:00 13.7 8 Sudoeste 39 Sudoeste 0.6 -- -- 96
2020-10-21 03:00:00 13.5 10 Sudoeste 39 Sudoeste 0 -- -- 94
2020-10-21 02:00:00 13.5 9 Sur 35 Sudoeste 0.2 -- -- 95
2020-10-21 01:00:00 13.4 7 Sudoeste 35 Sudoeste 0 -- -- 96
2020-10-21 00:00:00 13.6 6 Sur 25 Sudoeste 0 -- -- 96
2020-10-20 23:00:00 13.4 5 Sudoeste 29 Sudoeste 0.2 -- -- 96
2020-10-20 22:00:00 13.6 8 Noroeste 61 Oeste 6.8 -- -- 95
2020-10-20 21:00:00 15.6 10 Sur 30 Sur 1.6 -- -- 97
2020-10-20 20:00:00 15.5 7 Sur 41 Sudoeste 1.4 -- -- 97
2020-10-20 19:00:00 15 11 Sur 29 Oeste 1.8 -- -- 97
2020-10-20 18:00:00 14.2 8 Sur 26 Sudeste 1.4 -- -- 95
2020-10-20 17:00:00 14.8 7 Sur 29 Sudoeste 0.8 -- -- 91
2020-10-20 16:00:00 16.4 6 Sur 34 Oeste 0.4 -- -- 91
2020-10-20 15:00:00 16.6 5 Sur 21 Sur 0 -- -- 88
2020-10-20 14:00:00 18.3 7 Sur 24 Este 0 -- -- 78
2020-10-20 13:00:00 17.5 6 Sur 24 Sudeste 0.2 -- -- 79
2020-10-20 12:00:00 16.1 6 Sur 36 Este 0.8 -- -- 88
2020-10-20 11:00:00 15.3 6 Sur 22 Sudeste 0.6 -- -- 94
2020-10-20 10:00:00 14.6 5 Sudeste 23 Sudeste 0.2 -- -- 95
2020-10-20 09:00:00 14 5 Sur 21 Sudeste 0.2 -- -- 95
2020-10-20 08:00:00 13.9 4 Sudeste 17 Sudeste 0.8 -- -- 96
2020-10-20 07:00:00 13.8 6 Sur 17 Sur 0.8 -- -- 95
2020-10-20 06:00:00 13.9 5 Sur 19 Sur 0.6 -- -- 95
2020-10-20 05:00:00 13.9 6 Sur 20 Sur 2.2 -- -- 93
2020-10-20 04:00:00 15.5 5 Sur 14 Sur 0.4 -- -- 82
2020-10-20 03:00:00 16 4 Sur 24 Sudoeste 0 -- -- 73
2020-10-20 02:00:00 16.1 4 Sur 23 Sudoeste 0 -- -- 73
2020-10-20 01:00:00 16 5 Sudeste 16 Sudoeste 0 -- -- 77
2020-10-20 00:00:00 16.3 3 Sur 13 Sudeste 0 -- -- 76
2020-10-19 23:00:00 16.3 2 Sur 12 Sudeste 0 -- -- 74
2020-10-19 22:00:00 16.6 2 Sur 9 Sudeste 0 -- -- 70
2020-10-19 21:00:00 17.3 2 Sur 10 Sur 0 -- -- 63
2020-10-19 20:00:00 18.2 4 Sur 26 Sudoeste 0 -- -- 61
2020-10-19 19:00:00 19.8 10 Sudoeste 30 Sudoeste 0 -- -- 53
2020-10-19 18:00:00 22 11 Sudoeste 36 Sudoeste 0 -- -- 42
2020-10-19 17:00:00 23.2 5 Sur 26 Sudoeste 0 -- -- 36
2020-10-19 16:00:00 23.5 5 Sur 28 Oeste 0 -- -- 33
2020-10-19 15:00:00 23 5 Sur 22 Sudoeste 0 -- -- 31
2020-10-19 14:00:00 22.1 5 Sur 23 Sudeste 0 -- -- 29
2020-10-19 13:00:00 21.9 5 Sudeste 21 Sudeste 0 -- -- 28
2020-10-19 12:00:00 20.8 5 Sudeste 21 Sudeste 0 -- -- 28
2020-10-19 11:00:00 17.1 8 Este 15 Este 0 -- -- 34
2020-10-19 10:00:00 11.9 2 Este 5 Este 0 -- -- 46
2020-10-19 09:00:00 9.3 0 Calma 4 Este 0 -- -- 54
2020-10-19 08:00:00 9.6 0 Calma 3 Nordeste 0 -- -- 52
2020-10-19 07:00:00 10.4 0 Calma 10 Nordeste 0 -- -- 50
2020-10-19 06:00:00 10.4 3 Nordeste 8 Nordeste 0 -- -- 49
2020-10-19 05:00:00 10.5 0 Calma 3 Sur 0 -- -- 49
2020-10-19 04:00:00 11 0 Calma 5 Sudeste 0 -- -- 49
2020-10-19 03:00:00 11.4 0 Calma 4 Nordeste 0 -- -- 51
2020-10-19 02:00:00 12 2 Este 4 Nordeste 0 -- -- 50
2020-10-19 01:00:00 12 0 Calma 4 Nordeste 0 -- -- 54
2020-10-19 00:00:00 11.9 0 Calma 5 Nordeste 0 -- -- 57
2020-10-18 23:00:00 12.5 0 Calma 3 Noroeste 0 -- -- 57
2020-10-18 22:00:00 13.8 0 Calma 2 Sudoeste 0 -- -- 53
2020-10-18 21:00:00 15.3 0 Calma 0 Calma 0 -- -- 48
2020-10-18 20:00:00 18 0 Calma 4 Este 0 -- -- 42
2020-10-18 19:00:00 20.3 2 Sur 11 Este 0 -- -- 37
2020-10-18 18:00:00 21.5 2 Sur 18 Sudeste 0 -- -- 35
2020-10-18 17:00:00 21.6 3 Sudeste 19 Este 0 -- -- 33
2020-10-18 16:00:00 21.1 2 Sudeste 17 Este 0 -- -- 31
2020-10-18 15:00:00 20.6 6 Sudeste 15 Este 0 -- -- 34
2020-10-18 14:00:00 20.3 4 Sudeste 23 Este 0 -- -- 34
2020-10-18 13:00:00 19.4 7 Sudeste 21 Este 0 -- -- 38
2020-10-18 12:00:00 19.2 8 Este 18 Este 0 -- -- 38
2020-10-18 11:00:00 16.7 3 Sudeste 12 Este 0 -- -- 46
2020-10-18 10:00:00 10.7 2 Sudeste 5 Sudeste 0 -- -- 64
2020-10-18 09:00:00 8 0 Calma 4 Sudoeste 0 -- -- 68
2020-10-18 08:00:00 7.7 0 Calma 3 Sudoeste 0 -- -- 69
2020-10-18 07:00:00 7.9 0 Calma 2 Oeste 0 -- -- 68
2020-10-18 06:00:00 8.3 0 Calma 0 Calma 0 -- -- 67
2020-10-18 05:00:00 8.4 0 Calma 0 Calma 0 -- -- 66
2020-10-18 04:00:00 8.7 0 Calma 0 Calma 0 -- -- 65
2020-10-18 03:00:00 8.8 0 Calma 2 Noroeste 0 -- -- 64
2020-10-18 02:00:00 9.2 0 Calma 2 Oeste 0 -- -- 63
2020-10-18 01:00:00 9.6 0 Calma 2 Sudoeste 0 -- -- 62
2020-10-18 00:00:00 10.5 0 Calma 4 Oeste 0 -- -- 58
2020-10-17 23:00:00 11.5 4 Noroeste 6 Noroeste 0 -- -- 53
2020-10-17 22:00:00 12.6 0 Calma 5 Oeste 0 -- -- 49
2020-10-17 21:00:00 14.3 0 Calma 4 Sudoeste 0 -- -- 43
2020-10-17 20:00:00 16.5 0 Calma 4 Oeste 0 -- -- 38
2020-10-17 19:00:00 18.8 0 Calma 12 Sudoeste 0 -- -- 35
2020-10-17 18:00:00 19.5 3 Sudeste 17 Oeste 0 -- -- 33
2020-10-17 17:00:00 19.4 4 Sudoeste 12 Oeste 0 -- -- 33
2020-10-17 16:00:00 18.8 4 Este 16 Sudoeste 0 -- -- 32
2020-10-17 15:00:00 18.2 6 Noroeste 12 Sudoeste 0 -- -- 35
2020-10-17 14:00:00 18 3 Sur 12 Sudoeste 0 -- -- 37
2020-10-17 13:00:00 18 3 Este 12 Este 0 -- -- 39
2020-10-17 12:00:00 17.8 3 Sudeste 8 Este 0 -- -- 40
2020-10-17 11:00:00 14.5 2 Nordeste 5 Nordeste 0 -- -- 47
2020-10-17 10:00:00 10.4 0 Calma 4 Nordeste 0 -- -- 56
2020-10-17 09:00:00 7.8 0 Calma 4 Noroeste 0 -- -- 64
2020-10-17 08:00:00 8.1 3 Noroeste 3 Noroeste 0 -- -- 62
2020-10-17 07:00:00 8.1 3 Noroeste 8 Oeste 0 -- -- 58
2020-10-17 06:00:00 9.7 3 Oeste 10 Oeste 0 -- -- 52
2020-10-17 05:00:00 10.8 8 Oeste 12 Oeste 0 -- -- 48
2020-10-17 04:00:00 8.8 7 Oeste 10 Oeste 0 -- -- 54
2020-10-17 03:00:00 8.1 2 Noroeste 5 Sudoeste 0 -- -- 56
2020-10-17 02:00:00 8.4 0 Calma 4 Noroeste 0 -- -- 55
2020-10-17 01:00:00 9.4 0 Calma 7 Oeste 0 -- -- 51
2020-10-17 00:00:00 10.2 5 Noroeste 9 Oeste 0 -- -- 49
2020-10-16 23:00:00 10.8 0 Calma 6 Noroeste 0 -- -- 49
2020-10-16 22:00:00 12.2 3 Noroeste 8 Oeste 0 -- -- 45
2020-10-16 21:00:00 14.3 0 Calma 7 Sudoeste 0 -- -- 42
2020-10-16 20:00:00 16.8 3 Sudoeste 10 Sudoeste 0 -- -- 36
2020-10-16 19:00:00 19 6 Oeste 22 Oeste 0 -- -- 30
2020-10-16 18:00:00 19.5 4 Sudoeste 16 Sudoeste 0 -- -- 28
2020-10-16 17:00:00 19 4 Norte 18 Oeste 0 -- -- 29
2020-10-16 16:00:00 18.7 5 Sudoeste 14 Este 0 -- -- 29
2020-10-16 15:00:00 18 3 Sur 14 Norte 0 -- -- 32
2020-10-16 14:00:00 17.7 6 Nordeste 14 Nordeste 0 -- -- 30
2020-10-16 13:00:00 17.3 6 Este 11 Sudeste 0 -- -- 34
2020-10-16 12:00:00 18.1 3 Sudeste 13 Este 0 -- -- 35
2020-10-16 11:00:00 15.8 5 Este 11 Este 0 -- -- 39
2020-10-16 10:00:00 10.1 0 Calma 2 Sudoeste 0 -- -- 53
2020-10-16 09:00:00 6.6 0 Calma 3 Noroeste 0 -- -- 64
2020-10-16 08:00:00 7 0 Calma 2 Nordeste 0 -- -- 61
2020-10-16 07:00:00 7.3 0 Calma 3 Noroeste 0 -- -- 59
2020-10-16 06:00:00 7.7 0 Calma 5 Oeste 0 -- -- 55
2020-10-16 05:00:00 8 3 Noroeste 5 Noroeste 0 -- -- 54
2020-10-16 04:00:00 8.4 0 Calma 3 Noroeste 0 -- -- 53
2020-10-16 03:00:00 9.4 0 Calma 6 Noroeste 0 -- -- 48
2020-10-16 02:00:00 10 0 Calma 5 Noroeste 0 -- -- 46
2020-10-16 01:00:00 11 4 Noroeste 11 Noroeste 0 -- -- 43
2020-10-16 00:00:00 11.1 6 Noroeste 10 Norte 0 -- -- 43
2020-10-15 23:00:00 11.1 4 Noroeste 11 Norte 0 -- -- 42
2020-10-15 22:00:00 11.5 4 Noroeste 9 Noroeste 0 -- -- 42
2020-10-15 21:00:00 13 4 Noroeste 9 Noroeste 0 -- -- 39
2020-10-15 20:00:00 15.3 4 Noroeste 15 Noroeste 0 -- -- 35
2020-10-15 19:00:00 17.5 9 Norte 18 Norte 0 -- -- 29
2020-10-15 18:00:00 18.3 9 Norte 21 Noroeste 0 -- -- 30
2020-10-15 17:00:00 18.5 12 Norte 20 Norte 0 -- -- 30
2020-10-15 16:00:00 17.9 7 Norte 15 Noroeste 0 -- -- 33
2020-10-15 15:00:00 17.3 6 Norte 19 Noroeste 0 -- -- 36
2020-10-15 14:00:00 16.4 3 Sudoeste 17 Noroeste 0 -- -- 35
2020-10-15 13:00:00 16.2 2 Norte 12 Norte 0 -- -- 36
2020-10-15 12:00:00 17.2 5 Nordeste 15 Nordeste 0 -- -- 34
2020-10-15 11:00:00 15.5 4 Nordeste 17 Nordeste 0 -- -- 41
2020-10-15 10:00:00 10 5 Noroeste 10 Oeste 0 -- -- 64
2020-10-15 09:00:00 6.7 3 Noroeste 8 Oeste 0 -- -- 77
2020-10-15 08:00:00 6.4 3 Noroeste 5 Noroeste 0 -- -- 76
2020-10-15 07:00:00 7.2 2 Noroeste 6 Oeste 0 -- -- 71
2020-10-15 06:00:00 8.1 3 Noroeste 9 Noroeste 0 -- -- 67
2020-10-15 05:00:00 9.2 0 Calma 10 Oeste 0 -- -- 62
2020-10-15 04:00:00 10.3 5 Noroeste 14 Noroeste 0 -- -- 58
2020-10-15 03:00:00 10.2 4 Noroeste 13 Noroeste 0 -- -- 57
2020-10-15 02:00:00 10.3 7 Noroeste 14 Noroeste 0 -- -- 57
2020-10-15 01:00:00 10.4 8 Noroeste 14 Noroeste 0 -- -- 53
2020-10-15 00:00:00 11.3 4 Noroeste 11 Noroeste 0 -- -- 47
2020-10-14 23:00:00 11.9 3 Noroeste 15 Noroeste 0 -- -- 44
2020-10-14 22:00:00 12.1 5 Noroeste 8 Noroeste 0 -- -- 44
2020-10-14 21:00:00 13.2 3 Oeste 10 Noroeste 0 -- -- 40
2020-10-14 20:00:00 15.1 5 Noroeste 26 Norte 0 -- -- 35
2020-10-14 19:00:00 17 13 Noroeste 28 Noroeste 0 -- -- 34
2020-10-14 18:00:00 17.8 14 Noroeste 31 Noroeste 0 -- -- 31
2020-10-14 17:00:00 17.9 13 Norte 28 Norte 0 -- -- 32
2020-10-14 16:00:00 17.6 13 Norte 28 Noroeste 0 -- -- 35
2020-10-14 15:00:00 17.1 10 Norte 31 Norte 0 -- -- 36
2020-10-14 14:00:00 16.3 19 Noroeste 32 Noroeste 0 -- -- 37
2020-10-14 13:00:00 15.4 13 Norte 30 Noroeste 0 -- -- 46
2020-10-14 12:00:00 15.3 13 Noroeste 30 Norte 0 -- -- 48
2020-10-14 11:00:00 13.2 12 Noroeste 26 Norte 0 -- -- 57
2020-10-14 10:00:00 10.1 9 Noroeste 17 Norte 0 -- -- 76
2020-10-14 09:00:00 8.4 6 Norte 21 Noroeste 0 -- -- 89
2020-10-14 08:00:00 7.3 0 Calma 10 Norte 0 -- -- 89
2020-10-14 07:00:00 8 7 Noroeste 22 Oeste 0 -- -- 88
2020-10-14 06:00:00 8.6 10 Oeste 25 Oeste 0 -- -- 86
2020-10-14 05:00:00 10 12 Noroeste 25 Noroeste 0 -- -- 82
2020-10-14 04:00:00 11.3 10 Oeste 25 Oeste 0 -- -- 80
2020-10-14 03:00:00 12.5 14 Oeste 26 Noroeste 0 -- -- 79
2020-10-14 02:00:00 14.2 12 Noroeste 25 Noroeste 0 -- -- 73
2020-10-14 01:00:00 15.5 9 Oeste 25 Noroeste 0 -- -- 69
2020-10-14 00:00:00 16.4 5 Oeste 19 Oeste 0 -- -- 61
2020-10-13 23:00:00 17.3 8 Oeste 19 Sudoeste 0 -- -- 51
2020-10-13 22:00:00 18.1 7 Oeste 13 Oeste 0 -- -- 43
2020-10-13 21:00:00 19.2 6 Oeste 12 Noroeste 0 -- -- 39
2020-10-13 20:00:00 20.9 8 Noroeste 19 Noroeste 0 -- -- 33
2020-10-13 19:00:00 23.1 7 Noroeste 22 Oeste 0 -- -- 29
2020-10-13 18:00:00 23.9 13 Noroeste 23 Noroeste 0 -- -- 27
2020-10-13 17:00:00 23.7 9 Oeste 19 Noroeste 0 -- -- 28
2020-10-13 16:00:00 23 5 Sudoeste 21 Noroeste 0 -- -- 26
2020-10-13 15:00:00 22.4 6 Oeste 14 Sudoeste 0 -- -- 25
2020-10-13 14:00:00 21.8 4 Este 10 Sudeste 0 -- -- 26
2020-10-13 13:00:00 21.6 4 Este 12 Este 0 -- -- 25
2020-10-13 12:00:00 22 5 Este 9 Sudeste 0 -- -- 26
2020-10-13 11:00:00 -- -- -- -- -- -- -- -- --
2020-10-13 10:00:00 -- -- -- -- -- -- -- -- --
2020-10-13 09:00:00 8.4 0 Calma 3 Oeste 0 -- -- 55
2020-10-13 08:00:00 8.4 0 Calma 4 Noroeste 0 -- -- 54
2020-10-13 07:00:00 8.7 0 Calma 5 Noroeste 0 -- -- 52
2020-10-13 06:00:00 9.2 5 Noroeste 8 Noroeste 0 -- -- 51
2020-10-13 05:00:00 10 2 Oeste 5 Norte 0 -- -- 50
2020-10-13 04:00:00 10.7 0 Calma 4 Norte 0 -- -- 47
2020-10-13 03:00:00 11.1 2 Oeste 9 Noroeste 0 -- -- 45
2020-10-13 02:00:00 11.1 0 Calma 6 Norte 0 -- -- 46
2020-10-13 01:00:00 -- -- -- -- -- -- -- -- --
2020-10-13 00:00:00 13 2 Noroeste 6 Noroeste 0 -- -- 39
2020-10-12 23:00:00 14.3 4 Norte 8 Norte 0 -- -- 35
2020-10-12 22:00:00 15.6 4 Noroeste 15 Norte 0 -- -- 32
2020-10-12 21:00:00 16.5 9 Norte 13 Nordeste 0 -- -- 30
2020-10-12 20:00:00 18.4 5 Nordeste 17 Nordeste 0 -- -- 25
2020-10-12 19:00:00 20.2 9 Nordeste 22 Nordeste 0 -- -- 23
2020-10-12 18:00:00 21 9 Nordeste 21 Norte 0 -- -- 22
2020-10-12 17:00:00 20.8 8 Nordeste 19 Nordeste 0 -- -- 22
2020-10-12 16:00:00 20.3 8 Este 24 Este 0 -- -- 24
2020-10-12 15:00:00 19.5 8 Nordeste 21 Nordeste 0 -- -- 25
2020-10-12 14:00:00 18.6 6 Este 23 Este 0 -- -- 27
2020-10-12 13:00:00 18 12 Nordeste 26 Este 0 -- -- 27
2020-10-12 12:00:00 18.1 9 Este 24 Este 0 -- -- 30
2020-10-12 11:00:00 16 10 Este 32 Este 0 -- -- 35
2020-10-12 10:00:00 13.2 14 Nordeste 31 Nordeste 0 -- -- 41
2020-10-12 09:00:00 11.7 10 Nordeste 19 Nordeste 0 -- -- 45
2020-10-12 08:00:00 11.3 3 Este 14 Este 0 -- -- 46
2020-10-12 07:00:00 11.8 2 Sudeste 12 Nordeste 0 -- -- 43
2020-10-12 06:00:00 13.4 5 Este 17 Nordeste 0 -- -- 37
2020-10-12 05:00:00 14 8 Nordeste 17 Este 0 -- -- 36
2020-10-12 04:00:00 -- -- -- -- -- -- -- -- --
2020-10-12 03:00:00 15 4 Este 16 Nordeste 0 -- -- 32
2020-10-12 02:00:00 15.7 6 Nordeste 14 Nordeste 0 -- -- 31
2020-10-12 01:00:00 16.2 3 Este 14 Nordeste 0 -- -- 32
2020-10-12 00:00:00 16.5 3 Nordeste 13 Nordeste 0 -- -- 37
2020-10-11 23:00:00 16.8 3 Norte 7 Nordeste 0 -- -- 39
2020-10-11 22:00:00 18.8 5 Nordeste 18 Norte 0 -- -- 36
2020-10-11 21:00:00 -- -- -- -- -- -- -- -- --
2020-10-11 20:00:00 -- -- -- -- -- -- -- -- --
2020-10-11 19:00:00 23.2 5 Nordeste 19 Sudeste 0 -- -- 31
2020-10-11 18:00:00 23.7 8 Este 18 Este 0 -- -- 32
2020-10-11 17:00:00 24 8 Este 24 Nordeste 0 -- -- 32
2020-10-11 16:00:00 24.2 10 Este 28 Sudeste 0 -- -- 34
2020-10-11 15:00:00 24 8 Este 24 Este 0 -- -- 37
2020-10-11 14:00:00 23.3 6 Sudeste 17 Sudeste 0 -- -- 38
2020-10-11 13:00:00 23 3 Sudeste 15 Este 0 -- -- 39
2020-10-11 12:00:00 24.1 2 Sudeste 12 Sudeste 0 -- -- 38
2020-10-11 11:00:00 20.8 3 Este 9 Este 0 -- -- 45
2020-10-11 10:00:00 15.6 2 Sudeste 6 Sudeste 0 -- -- 60
2020-10-11 09:00:00 12.9 0 Calma 2 Sudoeste 0 -- -- 65
2020-10-11 08:00:00 13.4 0 Calma 3 Nordeste 0 -- -- 63
2020-10-11 07:00:00 14.3 0 Calma 6 Este 0 -- -- 59
2020-10-11 06:00:00 15.2 3 Noroeste 5 Oeste 0 -- -- 56
2020-10-11 05:00:00 16.4 3 Oeste 9 Oeste 0 -- -- 53
2020-10-11 04:00:00 17.1 2 Noroeste 8 Norte 0 -- -- 50
2020-10-11 03:00:00 18.2 2 Noroeste 8 Nordeste 0 -- -- 47
2020-10-11 02:00:00 19 0 Calma 13 Nordeste 0 -- -- 44
2020-10-11 01:00:00 20.5 5 Nordeste 18 Nordeste 0 -- -- 38
2020-10-11 00:00:00 19.7 3 Norte 10 Nordeste 0 -- -- 42
2020-10-10 23:00:00 20 3 Noroeste 9 Noroeste 0 -- -- 40
2020-10-10 22:00:00 20.9 5 Noroeste 10 Noroeste 0 -- -- 39
2020-10-10 21:00:00 22.7 5 Norte 13 Norte 0 -- -- 38
2020-10-10 20:00:00 24.8 4 Noroeste 17 Norte 0 -- -- 35
2020-10-10 19:00:00 27.1 9 Noroeste 20 Noroeste 0 -- -- 31
2020-10-10 18:00:00 28.3 7 Noroeste 21 Noroeste 0 -- -- 32
2020-10-10 17:00:00 27.6 4 Sudoeste 15 Sudoeste 0 -- -- 31
2020-10-10 16:00:00 26.9 9 Noroeste 14 Oeste 0 -- -- 32
2020-10-10 15:00:00 26.4 6 Sudoeste 17 Sudoeste 0 -- -- 34
2020-10-10 14:00:00 26.4 3 Sur 18 Este 0 -- -- 34
2020-10-10 13:00:00 26.4 3 Este 13 Este 0 -- -- 33
2020-10-10 12:00:00 27.2 6 Este 12 Este 0 -- -- 33
2020-10-10 11:00:00 23.7 4 Sudeste 12 Este 0 -- -- 39
2020-10-10 10:00:00 17.6 0 Calma 2 Noroeste 0 -- -- 57
2020-10-10 09:00:00 14.5 0 Calma 2 Oeste 0 -- -- 63
2020-10-10 08:00:00 14.7 0 Calma 2 Noroeste 0 -- -- 61
2020-10-10 07:00:00 14.9 0 Calma 2 Oeste 0 -- -- 61
2020-10-10 06:00:00 15.2 0 Calma 0 Calma 0 -- -- 60
2020-10-10 05:00:00 15.9 0 Calma 2 Noroeste 0 -- -- 58
2020-10-10 04:00:00 16.4 3 Noroeste 5 Noroeste 0 -- -- 56
2020-10-10 03:00:00 16.7 2 Oeste 6 Noroeste 0 -- -- 56
2020-10-10 02:00:00 17.4 3 Noroeste 8 Noroeste 0 -- -- 54
2020-10-10 01:00:00 17.8 3 Noroeste 6 Norte 0 -- -- 54
2020-10-10 00:00:00 18.4 4 Noroeste 8 Norte 0 -- -- 50
2020-10-09 23:00:00 19.8 0 Calma 8 Noroeste 0 -- -- 47
2020-10-09 22:00:00 21.4 4 Norte 15 Noroeste 0 -- -- 44
2020-10-09 21:00:00 22.1 3 Sudoeste 9 Oeste 0 -- -- 41
2020-10-09 20:00:00 24.7 3 Oeste 15 Noroeste 0 -- -- 35
2020-10-09 19:00:00 26.9 9 Noroeste 17 Noroeste 0 -- -- 31
2020-10-09 18:00:00 27.4 4 Sur 16 Oeste 0 -- -- 31
2020-10-09 17:00:00 27.4 3 Sudeste 16 Sudoeste 0 -- -- 32
2020-10-09 16:00:00 27.1 4 Sudeste 16 Este 0 -- -- 32
2020-10-09 15:00:00 26.6 7 Noroeste 13 Noroeste 0 -- -- 32
2020-10-09 14:00:00 26.6 3 Sur 14 Este 0 -- -- 32
2020-10-09 13:00:00 26.3 5 Sudeste 13 Este 0 -- -- 32
2020-10-09 12:00:00 25.4 4 Este 11 Este 0 -- -- 35
2020-10-09 11:00:00 23 4 Este 9 Sudeste 0 -- -- 37
2020-10-09 10:00:00 17.2 0 Calma 5 Este 0 -- -- 51
2020-10-09 09:00:00 14.3 2 Noroeste 3 Noroeste 0 -- -- 57
2020-10-09 08:00:00 14.6 0 Calma 3 Norte 0 -- -- 55
2020-10-09 07:00:00 15.2 0 Calma 4 Noroeste 0 -- -- 52
2020-10-09 06:00:00 15.9 0 Calma 6 Noroeste 0 -- -- 49
2020-10-09 05:00:00 16.2 4 Noroeste 6 Noroeste 0 -- -- 54
2020-10-09 04:00:00 17.2 4 Noroeste 6 Oeste 0 -- -- 53
2020-10-09 03:00:00 18.8 3 Noroeste 10 Noroeste 0 -- -- 48
2020-10-09 02:00:00 19.4 5 Oeste 13 Noroeste 0 -- -- 47
2020-10-09 01:00:00 19.4 6 Oeste 12 Noroeste 0 -- -- 48
2020-10-09 00:00:00 20.1 3 Oeste 12 Oeste 0 -- -- 46
2020-10-08 23:00:00 21.3 2 Noroeste 14 Oeste 0 -- -- 42
2020-10-08 22:00:00 21.5 4 Noroeste 9 Oeste 0 -- -- 41
2020-10-08 21:00:00 22.8 4 Sudoeste 12 Oeste 0 -- -- 37
2020-10-08 20:00:00 24.7 0 Calma 7 Sur 0 -- -- 33
2020-10-08 19:00:00 26.5 0 Calma 8 Sudeste 0 -- -- 32
2020-10-08 18:00:00 27.9 2 Sudeste 12 Sudoeste 0 -- -- 29
2020-10-08 17:00:00 27.2 2 Sur 14 Sudoeste 0 -- -- 30
2020-10-08 16:00:00 26.9 3 Sudeste 16 Oeste 0 -- -- 29
2020-10-08 15:00:00 26.6 3 Sudeste 17 Sudeste 0 -- -- 29
2020-10-08 14:00:00 26.5 5 Sudoeste 19 Sudoeste 0 -- -- 29
2020-10-08 13:00:00 25.7 2 Sur 12 Este 0 -- -- 34
2020-10-08 12:00:00 25.8 2 Este 16 Sudeste 0 -- -- 36
2020-10-08 11:00:00 22.7 5 Este 13 Sudeste 0 -- -- 42
2020-10-08 10:00:00 18.5 2 Este 7 Este 0 -- -- 53
2020-10-08 09:00:00 14.1 0 Calma 4 Oeste 0 -- -- 63
2020-10-08 08:00:00 13.7 0 Calma 2 Noroeste 0 -- -- 61
2020-10-08 07:00:00 14.3 0 Calma 2 Oeste 0 -- -- 60
2020-10-08 06:00:00 14.4 0 Calma 4 Oeste 0 -- -- 60
2020-10-08 05:00:00 14.8 0 Calma 2 Sur 0 -- -- 59
2020-10-08 04:00:00 15.2 0 Calma 2 Oeste 0 -- -- 58
2020-10-08 03:00:00 15.4 0 Calma 6 Sudoeste 0 -- -- 56
2020-10-08 02:00:00 16 0 Calma 3 Oeste 0 -- -- 54
2020-10-08 01:00:00 16.7 0 Calma 2 Oeste 0 -- -- 52
2020-10-08 00:00:00 17.1 0 Calma 3 Oeste 0 -- -- 50
2020-10-07 23:00:00 18.5 0 Calma 6 Noroeste 0 -- -- 46
2020-10-07 22:00:00 20.2 5 Noroeste 11 Norte 0 -- -- 40
2020-10-07 21:00:00 21.4 0 Calma 10 Norte 0 -- -- 37
2020-10-07 20:00:00 23.9 5 Noroeste 9 Oeste 0 -- -- 33
2020-10-07 19:00:00 26.8 0 Calma 8 Sudoeste 0 -- -- 30
2020-10-07 18:00:00 27.2 4 Este 13 Sudeste 0 -- -- 29
2020-10-07 17:00:00 26.9 6 Sudeste 18 Este 0 -- -- 30
2020-10-07 16:00:00 26.5 3 Sudeste 14 Este 0 -- -- 30
2020-10-07 15:00:00 25.7 4 Sudeste 15 Este 0 -- -- 31
2020-10-07 14:00:00 24.7 4 Este 12 Este 0 -- -- 37
2020-10-07 13:00:00 25 7 Este 16 Este 0 -- -- 36
2020-10-07 12:00:00 26 7 Este 18 Este 0 -- -- 35
2020-10-07 11:00:00 22.5 3 Nordeste 9 Nordeste 0 -- -- 50
2020-10-07 10:00:00 18.2 3 Este 10 Nordeste 0 -- -- 65
2020-10-07 09:00:00 14.6 4 Noroeste 5 Oeste 0 -- -- 77
2020-10-07 08:00:00 14.7 4 Noroeste 8 Noroeste 0 -- -- 76
2020-10-07 07:00:00 15.1 2 Noroeste 7 Norte 0 -- -- 76
2020-10-07 06:00:00 16 4 Noroeste 12 Noroeste 0 -- -- 74
2020-10-07 05:00:00 15.9 5 Noroeste 10 Norte 0 -- -- 75
2020-10-07 04:00:00 15.3 4 Noroeste 8 Noroeste 0 -- -- 74
2020-10-07 03:00:00 15.2 4 Noroeste 11 Noroeste 0 -- -- 76
2020-10-07 02:00:00 15.5 3 Noroeste 6 Nordeste 0 -- -- 75
2020-10-07 01:00:00 16.7 3 Nordeste 6 Nordeste 0 -- -- 71
2020-10-07 00:00:00 17 4 Noroeste 6 Norte 0 -- -- 70
2020-10-06 23:00:00 17.8 2 Noroeste 6 Norte 0 -- -- 67
2020-10-06 22:00:00 19.2 3 Norte 6 Norte 0 -- -- 63
2020-10-06 21:00:00 20.6 2 Oeste 15 Norte 0 -- -- 58
2020-10-06 20:00:00 22.3 6 Norte 17 Norte 0 -- -- 55
2020-10-06 19:00:00 24 4 Noroeste 21 Norte 0 -- -- 49
2020-10-06 18:00:00 24.4 10 Norte 19 Nordeste 0 -- -- 47
2020-10-06 17:00:00 23.7 5 Norte 18 Noroeste 0 -- -- 49
2020-10-06 16:00:00 23.4 9 Nordeste 21 Nordeste 0 -- -- 51
2020-10-06 15:00:00 22 7 Norte 17 Noroeste 0 -- -- 55
2020-10-06 14:00:00 21.7 9 Norte 19 Nordeste 0 -- -- 56
2020-10-06 13:00:00 21.6 7 Nordeste 18 Norte 0 -- -- 55
2020-10-06 12:00:00 21.9 9 Norte 23 Norte 0 -- -- 53
2020-10-06 11:00:00 18.8 5 Nordeste 10 Nordeste 0 -- -- 65
2020-10-06 10:00:00 13.7 0 Calma 6 Este 0 -- -- 89
2020-10-06 09:00:00 11 0 Calma 3 Oeste 0 -- -- 93
2020-10-06 08:00:00 10.8 0 Calma 5 Noroeste 0 -- -- 90
2020-10-06 07:00:00 11.1 0 Calma 3 Noroeste 0 -- -- 89
2020-10-06 06:00:00 11.6 0 Calma 4 Norte 0 -- -- 87
2020-10-06 05:00:00 12 0 Calma 8 Noroeste 0 -- -- 85
2020-10-06 04:00:00 12.4 4 Noroeste 6 Noroeste 0 -- -- 80
2020-10-06 03:00:00 13.5 6 Noroeste 13 Noroeste 0 -- -- 77
2020-10-06 02:00:00 13.3 6 Noroeste 13 Oeste 0 -- -- 78
2020-10-06 01:00:00 13.5 5 Noroeste 13 Noroeste 0 -- -- 75
2020-10-06 00:00:00 13.4 9 Noroeste 14 Noroeste 0 -- -- 71
2020-10-05 23:00:00 13.8 4 Noroeste 9 Noroeste 0 -- -- 64
2020-10-05 22:00:00 14.2 3 Sudoeste 8 Oeste 0 -- -- 61
2020-10-05 21:00:00 15.7 0 Calma 10 Norte 0 -- -- 55
2020-10-05 20:00:00 17.7 6 Noroeste 23 Noroeste 0 -- -- 48
2020-10-05 19:00:00 19.2 12 Noroeste 25 Noroeste 0 -- -- 43
2020-10-05 18:00:00 19.6 13 Norte 28 Noroeste 0 -- -- 39
2020-10-05 17:00:00 19.4 10 Norte 28 Nordeste 0 -- -- 38
2020-10-05 16:00:00 19 14 Norte 25 Noroeste 0 -- -- 40
2020-10-05 15:00:00 17.8 13 Norte 25 Norte 0 -- -- 43
2020-10-05 14:00:00 16.9 8 Norte 23 Noroeste 0 -- -- 49
2020-10-05 13:00:00 16.1 12 Norte -- -- -- -- -- 57
2020-10-05 12:00:00 16 11 Norte 21 Norte 0 -- -- 56
2020-10-05 11:00:00 14.5 13 Norte 21 Norte 0 -- -- 66
2020-10-05 10:00:00 12.1 8 Noroeste 22 Norte 0 -- -- 76
2020-10-05 09:00:00 10.6 7 Norte 23 Noroeste 0 -- -- 80
2020-10-05 08:00:00 10.2 6 Noroeste 25 Noroeste 0 -- -- 79
2020-10-05 07:00:00 10 6 Noroeste 26 Noroeste 0 -- -- 78
2020-10-05 06:00:00 10 8 Noroeste 27 Norte 0 -- -- 79
2020-10-05 05:00:00 9.4 3 Norte 12 Norte 0 -- -- 81
2020-10-05 04:00:00 10.2 2 Norte 16 Noroeste 0 -- -- 76
2020-10-05 03:00:00 10.6 7 Noroeste 18 Norte 0 -- -- 75
2020-10-05 02:00:00 11.4 5 Noroeste 20 Oeste 0 -- -- 71
2020-10-05 01:00:00 12.2 9 Noroeste 24 Norte 0 -- -- 67
2020-10-05 00:00:00 13.3 9 Noroeste 20 Noroeste 0 -- -- 63
2020-10-04 23:00:00 13.7 12 Noroeste 24 Noroeste 0 -- -- 62
2020-10-04 22:00:00 13.2 10 Noroeste 26 Noroeste 0 -- -- 67
2020-10-04 21:00:00 13.2 5 Noroeste 11 Oeste 0 -- -- 75
2020-10-04 20:00:00 14.7 4 Noroeste 22 Noroeste 0 -- -- 73
2020-10-04 19:00:00 16.1 11 Noroeste 24 Oeste 0 -- -- 70
2020-10-04 18:00:00 16.9 14 Noroeste 30 Noroeste 0 -- -- 71
2020-10-04 17:00:00 18.2 14 Noroeste 31 Oeste 0 -- -- 70
2020-10-04 16:00:00 18.7 11 Oeste 32 Noroeste 0 -- -- 64
2020-10-04 15:00:00 19.5 17 Oeste 30 Oeste 0 -- -- 59
2020-10-04 14:00:00 18.9 12 Oeste 28 Oeste 0 -- -- 57
2020-10-04 13:00:00 17.2 10 Noroeste 25 Oeste 0 -- -- 63
2020-10-04 12:00:00 16.3 9 Oeste 24 Oeste 0 -- -- 64
2020-10-04 11:00:00 13.5 8 Oeste 19 Oeste 0 -- -- 73
2020-10-04 10:00:00 10.9 5 Oeste 18 Oeste 0 -- -- 83
2020-10-04 09:00:00 8.3 7 Sudoeste 15 Oeste 0 -- -- 93
2020-10-04 08:00:00 7.7 6 Oeste 11 Oeste 0 -- -- 92
2020-10-04 07:00:00 7.8 2 Oeste 7 Noroeste 0 -- -- 87
2020-10-04 06:00:00 8.4 3 Noroeste 10 Oeste 0 -- -- 85
2020-10-04 05:00:00 9.1 5 Noroeste 13 Noroeste 0 -- -- 82
2020-10-04 04:00:00 9.6 5 Noroeste 14 Oeste 0 -- -- 78
2020-10-04 03:00:00 9.7 7 Oeste 14 Noroeste 0 -- -- 78
2020-10-04 02:00:00 10.2 3 Noroeste 14 Oeste 0 -- -- 74
2020-10-04 01:00:00 10.4 6 Oeste 12 Noroeste 0 -- -- 73
2020-10-04 00:00:00 10.5 4 Oeste 8 Oeste 0 -- -- 72
2020-10-03 23:00:00 10.9 4 Oeste 7 Oeste 0 -- -- 69
2020-10-03 22:00:00 11.7 0 Calma 7 Noroeste 0 -- -- 66
2020-10-03 21:00:00 12.9 3 Oeste 12 Noroeste 0 -- -- 59
2020-10-03 20:00:00 14.6 6 Noroeste 26 Noroeste 0 -- -- 53
2020-10-03 19:00:00 16.4 10 Noroeste 26 Noroeste 0 -- -- 48
2020-10-03 18:00:00 16.9 13 Noroeste 30 Noroeste 0 -- -- 45
2020-10-03 17:00:00 16.7 12 Noroeste 28 Noroeste 0 -- -- 44
2020-10-03 16:00:00 16.5 12 Noroeste 27 Oeste 0 -- -- 47
2020-10-03 15:00:00 15.7 16 Noroeste 29 Norte 0 -- -- 44
2020-10-03 14:00:00 15 14 Noroeste 31 Noroeste 0 -- -- 45
2020-10-03 13:00:00 14.4 14 Noroeste 28 Norte 0 -- -- 50
2020-10-03 12:00:00 14.8 12 Norte 26 Oeste 0 -- -- 52
2020-10-03 11:00:00 12.7 10 Noroeste 22 Noroeste 0 -- -- 67
2020-10-03 10:00:00 9.1 10 Noroeste 19 Noroeste 0 -- -- 86
2020-10-03 09:00:00 7.7 9 Noroeste 22 Noroeste 0 -- -- 92
2020-10-03 08:00:00 7.7 8 Noroeste 20 Noroeste 0 -- -- 91
2020-10-03 07:00:00 8.2 11 Noroeste 26 Noroeste 0 -- -- 89
2020-10-03 06:00:00 8.3 11 Noroeste 28 Noroeste 0 -- -- 90
2020-10-03 05:00:00 7.7 13 Oeste 27 Noroeste 0 -- -- 89
2020-10-03 04:00:00 7.8 14 Oeste 24 Oeste 0 -- -- 86
2020-10-03 03:00:00 8.2 11 Oeste 27 Oeste 0 -- -- 83
2020-10-03 02:00:00 8.5 12 Oeste 27 Noroeste 0 -- -- 80
2020-10-03 01:00:00 8.8 14 Oeste 28 Noroeste 0 -- -- 78
2020-10-03 00:00:00 9.3 13 Oeste 27 Oeste 0 -- -- 76
2020-10-02 23:00:00 9.7 10 Noroeste 25 Oeste 0 -- -- 75
2020-10-02 22:00:00 10.2 13 Noroeste 29 Noroeste 0 -- -- 71
2020-10-02 21:00:00 10.8 5 Oeste 23 Noroeste 0 -- -- 75
2020-10-02 20:00:00 12.2 13 Noroeste 39 Noroeste 0 -- -- 68
2020-10-02 19:00:00 13.4 20 Noroeste 45 Noroeste 0 -- -- 72
2020-10-02 18:00:00 13.9 18 Noroeste 44 Noroeste 0 -- -- 77
2020-10-02 17:00:00 14.4 22 Noroeste 53 Noroeste 0.2 -- -- 88
2020-10-02 16:00:00 15.8 22 Noroeste 49 Oeste 0 -- -- 87
2020-10-02 15:00:00 16.2 23 Noroeste 54 Oeste 0 -- -- 90
2020-10-02 14:00:00 17 22 Oeste 50 Sudoeste 0 -- -- 93
2020-10-02 13:00:00 16.4 21 Oeste 49 Oeste 0 -- -- 91
2020-10-02 12:00:00 16.1 21 Oeste 49 Oeste 0 -- -- 93
2020-10-02 11:00:00 15.2 8 Sudoeste 26 Sudoeste 0 -- -- 94
2020-10-02 10:00:00 15 5 Oeste 24 Sudoeste 0 -- -- 91
2020-10-02 09:00:00 14.4 11 Oeste 34 Oeste 0 -- -- 90
2020-10-02 08:00:00 14.2 13 Oeste 30 Oeste 0 -- -- 90
2020-10-02 07:00:00 13.9 14 Oeste 38 Noroeste 0 -- -- 86
2020-10-02 06:00:00 13.6 12 Oeste 30 Oeste 0 -- -- 83
2020-10-02 05:00:00 13.3 14 Oeste 35 Oeste 0 -- -- 84
2020-10-02 04:00:00 13 19 Oeste 36 Oeste 0 -- -- 81
2020-10-02 03:00:00 13.3 14 Noroeste 27 Noroeste 0 -- -- 77
2020-10-02 02:00:00 13.9 16 Noroeste 35 Noroeste 0 -- -- 76
2020-10-02 01:00:00 14.6 18 Noroeste 40 Oeste 0 -- -- 72
2020-10-02 00:00:00 15.3 13 Noroeste 29 Oeste 0 -- -- 67
2020-10-01 23:00:00 16.3 12 Noroeste 27 Oeste 0 -- -- 64
2020-10-01 22:00:00 17.1 8 Noroeste 24 Noroeste 0 -- -- 63
2020-10-01 21:00:00 18 8 Noroeste 24 Noroeste 0 -- -- 62
2020-10-01 20:00:00 18.9 8 Oeste 26 Noroeste 0 -- -- 59
2020-10-01 19:00:00 20.7 15 Noroeste 30 Noroeste 0 -- -- 54
2020-10-01 18:00:00 21.3 17 Oeste 34 Noroeste 0 -- -- 52
2020-10-01 17:00:00 22.5 18 Noroeste 31 Oeste 0 -- -- 52
2020-10-01 16:00:00 22.7 15 Oeste 27 Noroeste 0 -- -- 51
2020-10-01 15:00:00 21.8 10 Noroeste 22 Oeste 0 -- -- 54
2020-10-01 14:00:00 21.3 7 Nordeste 21 Nordeste 0 -- -- 56
2020-10-01 13:00:00 20.8 10 Noroeste 22 Norte 0 -- -- 53
2020-10-01 12:00:00 21.3 13 Norte 24 Norte 0 -- -- 49
2020-10-01 11:00:00 17.9 9 Noroeste 18 Oeste 0 -- -- 61
2020-10-01 10:00:00 13.1 8 Noroeste 16 Oeste 0 -- -- 75
2020-10-01 09:00:00 11.4 7 Oeste 19 Noroeste 0 -- -- 80
2020-10-01 08:00:00 11.6 9 Noroeste 20 Oeste 0 -- -- 79
2020-10-01 07:00:00 12.5 5 Noroeste 19 Oeste 0 -- -- 82
2020-10-01 06:00:00 12.9 9 Oeste 24 Noroeste 0 -- -- 84
2020-10-01 05:00:00 14 6 Noroeste 20 Oeste 0 -- -- 80
2020-10-01 04:00:00 15.2 9 Oeste 18 Oeste 0 -- -- 76
2020-10-01 03:00:00 15.5 7 Oeste 26 Noroeste 0 -- -- 74
2020-10-01 02:00:00 16.2 9 Noroeste 25 Oeste 0 -- -- 65
2020-10-01 01:00:00 17.7 14 Oeste 23 Oeste 0 -- -- 55
2020-10-01 00:00:00 18.5 11 Noroeste 22 Noroeste 0 -- -- 49
2020-09-30 23:00:00 19.1 9 Oeste 17 Oeste 0 -- -- 45
2020-09-30 22:00:00 20.2 8 Oeste 19 Oeste 0 -- -- 44
2020-09-30 21:00:00 22 10 Noroeste 23 Noroeste 0 -- -- 40
2020-09-30 20:00:00 23.9 6 Oeste 22 Oeste 0 -- -- 38
2020-09-30 19:00:00 25.9 11 Noroeste 27 Oeste 0 -- -- 33
2020-09-30 18:00:00 26.7 4 Sudoeste 21 Noroeste 0 -- -- 32
2020-09-30 17:00:00 26.4 6 Sudoeste 20 Sudoeste 0 -- -- 32
2020-09-30 16:00:00 25.9 5 Oeste 22 Oeste 0 -- -- 30
2020-09-30 15:00:00 25.1 6 Oeste 17 Oeste 0 -- -- 31
2020-09-30 14:00:00 23.7 3 Noroeste 9 Sudoeste 0 -- -- 39
2020-09-30 13:00:00 24 0 Calma 8 Este 0 -- -- 36
2020-09-30 12:00:00 23.3 3 Este 6 Este 0 -- -- 39
2020-09-30 11:00:00 21.2 2 Nordeste 5 Nordeste 0 -- -- 42
2020-09-30 10:00:00 17.5 0 Calma 4 Noroeste 0 -- -- 51
2020-09-30 09:00:00 14.8 0 Calma 3 Noroeste 0 -- -- 51
2020-09-30 08:00:00 14.5 0 Calma -- -- 0 -- -- 51
2020-09-30 07:00:00 14.4 0 Calma 2 Oeste 0 -- -- 51
2020-09-30 06:00:00 15 0 Calma 4 Noroeste 0 -- -- 48
2020-09-30 05:00:00 16.1 4 Noroeste 6 Norte 0 -- -- 44
2020-09-30 04:00:00 16.6 2 Noroeste 7 Oeste 0 -- -- 43
2020-09-30 03:00:00 16.7 3 Noroeste 6 Oeste 0 -- -- 44
2020-09-30 02:00:00 17.7 0 Calma 8 Noroeste 0 -- -- 41
2020-09-30 01:00:00 18.6 5 Noroeste 9 Noroeste 0 -- -- 39
2020-09-30 00:00:00 18.9 5 Noroeste 8 Noroeste 0 -- -- 38